createdAt,value
2019-05-19T10:52:37.347Z,94724.52
2019-05-19T10:55:17.617Z,94718.37
2019-05-19T10:57:56.339Z,94721.46
2019-05-19T11:00:33.082Z,94740.91
2019-05-19T11:03:07.024Z,94739.30
2019-05-19T11:05:40.212Z,94738.34
2019-05-19T11:08:16.186Z,94737.28
2019-05-19T11:10:50.324Z,94733.56
2019-05-19T11:13:22.053Z,94733.76
2019-05-19T11:15:53.584Z,94733.80
2019-05-19T11:18:26.323Z,94708.31
2019-05-19T11:24:18.235Z,94702.55
2019-05-19T11:27:01.933Z,94707.47
2019-05-19T11:46:34.717Z,94707.06
2019-05-19T11:54:51.815Z,94700.90
2019-05-19T12:03:58.527Z,94692.15
2019-05-19T12:06:42.513Z,94692.38
2019-05-19T12:15:40.971Z,94685.31
2019-05-19T12:18:21.127Z,94689.11
2019-05-19T12:20:59.758Z,94683.20
2019-05-19T12:23:31.716Z,94688.27
2019-05-19T12:26:05.167Z,94694.31
2019-05-19T12:28:38.545Z,94690.59
2019-05-19T12:31:09.671Z,94683.94
2019-05-19T12:33:51.481Z,94680.41
2019-05-19T12:36:16.533Z,94673.17
2019-05-19T12:38:47.932Z,94662.91
2019-05-19T12:41:21.153Z,94651.94
2019-05-19T12:43:53.946Z,94654.77
2019-05-19T12:46:27.403Z,94655.53
2019-05-19T12:57:04.643Z,94648.83
2019-05-19T12:59:37.409Z,94646.30
2019-05-19T13:02:09.324Z,94639.51
2019-05-19T13:04:40.437Z,94632.46
2019-05-19T13:07:12.579Z,94636.59
2019-05-19T13:09:45.394Z,94633.19
2019-05-19T13:12:16.486Z,94634.19
2019-05-19T13:14:50.599Z,94631.56
2019-05-19T13:17:23.456Z,94627.95
2019-05-19T13:19:56.559Z,94634.16
2019-05-19T13:22:28.983Z,94626.22
2019-05-19T13:25:02.343Z,94629.06
2019-05-19T13:27:33.456Z,94623.55
2019-05-19T13:30:11.502Z,94621.92
2019-05-19T13:32:42.910Z,94614.56
2019-05-19T13:37:46.756Z,94611.00
2019-05-19T13:40:19.845Z,94608.73
2019-05-19T13:42:51.563Z,94612.19
2019-05-19T13:45:21.434Z,94613.48
2019-05-19T13:47:54.515Z,94608.61
2019-05-19T13:50:26.312Z,94606.89
2019-05-19T13:52:59.343Z,94602.03
2019-05-19T13:55:30.454Z,94604.95
2019-05-19T13:58:03.597Z,94603.01
2019-05-19T14:00:36.382Z,94598.86
2019-05-19T14:03:10.941Z,94595.81
2019-05-19T14:05:43.944Z,94595.83
2019-05-19T14:08:17.322Z,94591.59
2019-05-19T14:10:48.692Z,94591.38
2019-05-19T14:13:21.601Z,94587.70
2019-05-19T14:15:54.584Z,94585.38
2019-05-19T14:18:26.994Z,94587.98
2019-05-19T14:20:58.489Z,94592.44
2019-05-19T14:23:29.776Z,94598.20
2019-05-19T14:26:02.703Z,94597.70
2019-05-19T14:28:35.613Z,94591.03
2019-05-19T14:31:08.983Z,94592.92
2019-05-19T14:33:40.943Z,94588.55
2019-05-19T14:36:12.573Z,94591.52
2019-05-19T14:39:05.023Z,94604.16
2019-05-19T14:41:41.343Z,94610.98
2019-05-19T14:44:14.464Z,94621.10
2019-05-19T14:46:48.172Z,94628.56
2019-05-19T14:49:20.939Z,94646.02
2019-05-19T14:51:52.375Z,94640.48
2019-05-19T14:54:25.308Z,94625.73
2019-05-19T14:56:58.014Z,94626.25
2019-05-19T14:59:30.340Z,94621.08
2019-05-19T15:02:01.480Z,94628.16
2019-05-19T15:04:32.323Z,94631.36
2019-05-19T15:07:05.323Z,94630.02
2019-05-19T15:09:38.875Z,94626.34
2019-05-19T15:12:11.777Z,94604.80
2019-05-19T15:14:43.324Z,94618.52
2019-05-19T15:17:14.498Z,94618.94
2019-05-19T15:19:46.552Z,94619.37
2019-05-19T15:22:19.294Z,94618.51
2019-05-19T15:24:52.254Z,94615.99
2019-05-19T15:27:23.158Z,94621.75
2019-05-19T15:30:11.483Z,94619.91
2019-05-19T15:32:30.329Z,94614.80
2019-05-19T15:35:01.533Z,94618.91
2019-05-19T15:37:34.355Z,94614.97
2019-05-19T15:40:08.770Z,94613.69
2019-05-19T15:42:41.644Z,94611.47
2019-05-19T15:45:16.739Z,94608.44
2019-05-19T15:47:48.323Z,94603.88
2019-05-19T15:50:21.560Z,94609.47
2019-05-19T15:52:55.002Z,94606.17
2019-05-19T15:55:32.345Z,94607.33
2019-05-19T15:58:16.120Z,94608.75
2019-05-19T16:00:41.012Z,94616.38
2019-05-19T16:03:13.485Z,94610.64
2019-05-19T16:05:43.877Z,94606.36
2019-05-19T16:08:16.704Z,94606.42
2019-05-19T16:10:49.658Z,94606.25
2019-05-19T16:13:23.773Z,94612.23
2019-05-19T16:15:57.372Z,94606.55
2019-05-19T16:18:28.440Z,94607.03
2019-05-19T16:21:00.641Z,94607.36
2019-05-19T16:23:33.313Z,94604.41
2019-05-19T16:26:07.005Z,94600.22
2019-05-19T16:28:41.332Z,94603.37
2019-05-19T16:31:12.571Z,94606.44
2019-05-19T16:33:43.946Z,94604.01
2019-05-19T16:36:17.753Z,94601.85
2019-05-19T16:38:51.307Z,94607.58
2019-05-19T16:41:23.452Z,94602.23
2019-05-19T16:43:54.934Z,94612.78
2019-05-19T16:46:28.455Z,94611.14
2019-05-19T16:49:01.415Z,94614.16
2019-05-19T16:51:34.397Z,94617.65
2019-05-19T16:54:11.303Z,94618.02
2019-05-19T16:56:44.592Z,94618.95
2019-05-19T16:59:17.093Z,94620.28
2019-05-19T17:01:48.367Z,94616.69
2019-05-19T17:04:21.632Z,94616.02
2019-05-19T17:06:54.479Z,94617.23
2019-05-19T17:09:27.364Z,94617.20
2019-05-19T17:11:58.947Z,94616.64
2019-05-19T17:14:32.339Z,94612.92
2019-05-19T17:17:05.323Z,94611.23
2019-05-19T17:19:38.037Z,94617.52
2019-05-19T17:22:09.522Z,94608.30
2019-05-19T17:24:40.112Z,94613.06
2019-05-19T17:27:12.902Z,94611.55
2019-05-19T17:29:44.322Z,94618.55
2019-05-19T17:32:16.343Z,94619.78
2019-05-19T17:34:49.463Z,94621.09
2019-05-19T17:37:20.032Z,94619.81
2019-05-19T17:39:52.591Z,94618.16
2019-05-19T17:42:25.804Z,94622.21
2019-05-19T17:44:57.944Z,94618.77
2019-05-19T17:47:29.977Z,94620.58
2019-05-19T17:50:02.000Z,94622.74
2019-05-19T17:52:34.755Z,94629.90
2019-05-19T17:55:08.996Z,94631.42
2019-05-19T17:57:42.363Z,94634.07
2019-05-19T18:00:15.192Z,94635.25
2019-05-19T18:02:46.904Z,94631.08
2019-05-19T18:05:18.127Z,94630.20
2019-05-19T18:07:51.352Z,94625.06
2019-05-19T18:10:24.429Z,94629.63
2019-05-19T18:12:57.517Z,94631.41
2019-05-19T18:15:31.530Z,94633.22
2019-05-19T18:18:03.449Z,94634.74
2019-05-19T18:20:34.529Z,94629.93
2019-05-19T18:23:06.473Z,94634.02
2019-05-19T18:25:39.750Z,94636.63
2019-05-19T18:28:13.650Z,94635.71
2019-05-19T18:30:47.934Z,94636.55
2019-05-19T18:33:21.795Z,94636.75
2019-05-19T18:35:54.433Z,94642.50
2019-05-19T18:38:25.577Z,94650.48
2019-05-19T18:40:59.344Z,94654.80
2019-05-19T18:43:32.325Z,94666.98
2019-05-19T18:46:05.972Z,94659.35
2019-05-19T18:48:38.454Z,94662.12
2019-05-19T18:51:11.879Z,94666.29
2019-05-19T18:53:43.583Z,94669.36
2019-05-19T18:56:14.023Z,94664.09
2019-05-19T18:58:46.700Z,94669.81
2019-05-19T19:01:19.953Z,94668.58
2019-05-19T19:03:52.628Z,94668.66
2019-05-19T19:06:25.005Z,94674.16
2019-05-19T19:08:56.564Z,94669.38
2019-05-19T19:11:29.632Z,94665.06
2019-05-19T19:14:03.723Z,94665.91
2019-05-19T19:16:37.022Z,94676.80
2019-05-19T19:19:10.393Z,94673.63
2019-05-19T19:21:43.633Z,94681.79
2019-05-19T19:24:15.342Z,94680.77
2019-05-19T19:26:46.575Z,94679.59
2019-05-19T19:29:19.879Z,94678.17
2019-05-19T19:31:52.963Z,94674.72
2019-05-19T19:34:25.632Z,94682.17
2019-05-19T19:36:57.110Z,94676.39
2019-05-19T19:39:29.030Z,94675.23
2019-05-19T19:42:01.940Z,94683.25
2019-05-19T19:44:35.046Z,94689.45
2019-05-19T19:47:09.916Z,94698.47
2019-05-19T19:49:43.356Z,94694.34
2019-05-19T19:52:16.698Z,94700.86
2019-05-19T19:54:50.549Z,94697.60
2019-05-19T19:57:22.148Z,94695.13
2019-05-19T19:59:55.354Z,94691.01
2019-05-19T20:02:36.477Z,94693.83
